createdAt,value
2022-12-31T00:01:10.242Z,38.67
2022-12-31T00:06:18.492Z,39.17
2022-12-31T00:11:23.353Z,38.53
2022-12-31T00:16:28.569Z,39.05
2022-12-31T00:21:33.475Z,38.40
2022-12-31T00:26:37.815Z,38.75
2022-12-31T00:31:41.037Z,38.97
2022-12-31T00:36:46.181Z,38.75
2022-12-31T00:41:50.606Z,39.00
2022-12-31T00:46:53.938Z,38.63
2022-12-31T00:51:56.855Z,38.45
2022-12-31T00:57:01.121Z,38.80
2022-12-31T01:02:04.059Z,38.83
2022-12-31T01:07:07.096Z,38.65
2022-12-31T01:12:11.315Z,38.72
2022-12-31T01:17:14.376Z,38.47
2022-12-31T01:22:17.278Z,39.03
2022-12-31T01:27:21.452Z,39.10
2022-12-31T01:32:24.386Z,40.05
2022-12-31T01:37:27.236Z,40.55
2022-12-31T01:42:31.550Z,39.35
2022-12-31T01:47:38.785Z,40.15
2022-12-31T01:52:45.399Z,40.35
2022-12-31T01:57:52.326Z,39.15
2022-12-31T02:02:55.801Z,38.97
2022-12-31T02:07:59.828Z,38.78
2022-12-31T02:13:04.536Z,39.00
2022-12-31T02:18:17.817Z,39.10
2022-12-31T02:23:51.599Z,39.13
2022-12-31T02:29:28.869Z,39.00
2022-12-31T02:34:37.859Z,39.05
2022-12-31T02:39:54.455Z,39.80
2022-12-31T02:44:57.305Z,39.05
2022-12-31T02:50:21.167Z,39.17
2022-12-31T02:55:32.714Z,39.10
2022-12-31T03:00:59.687Z,39.40
2022-12-31T03:06:05.338Z,39.28
2022-12-31T03:11:28.979Z,39.28
2022-12-31T03:16:31.908Z,39.05
2022-12-31T03:21:53.828Z,39.25
2022-12-31T03:26:56.645Z,39.35
2022-12-31T03:31:59.509Z,39.38
2022-12-31T03:37:03.755Z,39.40
2022-12-31T03:42:06.697Z,39.65
2022-12-31T03:47:09.540Z,39.33
2022-12-31T03:52:13.694Z,40.00
2022-12-31T03:57:16.556Z,39.25
2022-12-31T04:02:24.663Z,39.75
2022-12-31T04:07:32.549Z,39.80
2022-12-31T04:12:36.756Z,40.13
2022-12-31T04:17:39.616Z,39.60
2022-12-31T04:22:44.002Z,41.08
2022-12-31T04:27:47.437Z,39.55
2022-12-31T04:32:50.255Z,39.95
2022-12-31T04:37:54.532Z,39.67
2022-12-31T04:42:58.896Z,39.50
2022-12-31T04:48:01.735Z,39.88
2022-12-31T04:53:05.884Z,40.25
2022-12-31T04:58:08.734Z,39.85
2022-12-31T05:03:11.639Z,40.47
2022-12-31T05:08:15.970Z,40.05
2022-12-31T05:13:18.867Z,39.60
2022-12-31T05:18:22.016Z,40.80
2022-12-31T05:23:30.386Z,39.33
2022-12-31T05:28:33.461Z,39.17
2022-12-31T05:33:36.748Z,39.55
2022-12-31T05:38:41.089Z,39.38
2022-12-31T05:43:45.013Z,38.92
2022-12-31T05:48:47.896Z,39.40
2022-12-31T05:53:52.246Z,38.95
2022-12-31T05:58:55.164Z,39.33
2022-12-31T06:03:59.109Z,39.28
2022-12-31T06:09:03.668Z,39.38
2022-12-31T06:14:06.679Z,39.70
2022-12-31T06:19:10.069Z,39.50
2022-12-31T06:24:14.304Z,40.08
2022-12-31T06:29:17.399Z,39.30
2022-12-31T06:34:20.387Z,39.05
2022-12-31T06:39:24.674Z,39.22
2022-12-31T06:44:27.517Z,39.47
2022-12-31T06:49:30.449Z,40.00
2022-12-31T06:54:35.331Z,40.08
2022-12-31T06:59:38.714Z,39.55
2022-12-31T07:05:03.996Z,39.25
2022-12-31T07:10:27.262Z,40.38
2022-12-31T07:15:46.800Z,39.47
2022-12-31T07:20:50.230Z,41.10
2022-12-31T07:26:01.098Z,39.70
2022-12-31T07:31:09.372Z,40.85
2022-12-31T07:36:24.222Z,39.70
2022-12-31T07:41:43.578Z,39.58
2022-12-31T07:46:55.280Z,39.67
2022-12-31T07:51:59.101Z,40.00
2022-12-31T07:57:03.472Z,39.38
2022-12-31T08:02:14.652Z,39.80
2022-12-31T08:07:23.571Z,39.90
2022-12-31T08:12:32.048Z,39.58
2022-12-31T08:17:35.272Z,42.30
2022-12-31T08:23:04.537Z,40.38
2022-12-31T08:28:18.800Z,40.08
2022-12-31T08:33:29.501Z,39.50
2022-12-31T08:38:37.138Z,40.40
2022-12-31T08:43:51.249Z,40.40
2022-12-31T08:48:54.428Z,41.58
2022-12-31T08:53:58.004Z,40.35
2022-12-31T08:59:24.080Z,39.90
2022-12-31T09:04:36.403Z,40.47
2022-12-31T09:09:45.971Z,39.90
2022-12-31T09:14:57.682Z,39.85
2022-12-31T09:20:01.060Z,40.55
2022-12-31T09:25:04.436Z,40.13
2022-12-31T09:30:12.282Z,40.03
2022-12-31T09:35:25.804Z,41.65
2022-12-31T09:40:51.378Z,40.10
2022-12-31T09:46:14.477Z,41.28
2022-12-31T09:51:29.529Z,40.58
2022-12-31T09:56:37.934Z,40.25
2022-12-31T10:01:51.547Z,40.28
2022-12-31T10:07:26.028Z,40.47
2022-12-31T10:12:53.523Z,40.60
2022-12-31T10:18:11.565Z,40.38
2022-12-31T10:24:01.292Z,40.33
2022-12-31T10:29:21.017Z,40.00
2022-12-31T10:34:33.874Z,40.35
2022-12-31T10:39:52.469Z,39.92
2022-12-31T10:45:32.083Z,40.08
2022-12-31T10:51:10.818Z,40.28
2022-12-31T10:57:10.803Z,40.80
2022-12-31T11:02:52.216Z,40.00
2022-12-31T11:08:11.978Z,40.30
2022-12-31T11:13:57.638Z,40.80
2022-12-31T11:19:13.697Z,40.38
2022-12-31T11:24:49.233Z,40.72
2022-12-31T11:30:07.272Z,40.38
2022-12-31T11:35:29.145Z,40.67
2022-12-31T11:40:54.183Z,41.70
2022-12-31T11:46:27.882Z,41.28
2022-12-31T11:51:50.825Z,42.10
2022-12-31T11:57:06.457Z,42.22
2022-12-31T12:02:23.850Z,40.90
2022-12-31T12:07:27.459Z,41.55
2022-12-31T12:12:41.260Z,41.47
2022-12-31T12:17:44.428Z,43.40
2022-12-31T12:22:51.983Z,42.70
2022-12-31T12:27:56.539Z,44.30
2022-12-31T12:33:02.067Z,41.83
2022-12-31T12:38:06.928Z,41.67
2022-12-31T12:43:24.675Z,41.55
2022-12-31T12:48:35.879Z,41.58
2022-12-31T12:53:48.263Z,42.35
2022-12-31T12:59:19.630Z,42.17
2022-12-31T13:04:35.371Z,41.80
2022-12-31T13:10:00.339Z,41.80
2022-12-31T13:15:13.604Z,42.00
2022-12-31T13:20:24.482Z,42.20
2022-12-31T13:25:35.024Z,41.25
2022-12-31T13:30:43.599Z,41.75
2022-12-31T13:35:50.167Z,42.70
2022-12-31T13:41:01.153Z,43.30
2022-12-31T13:46:13.041Z,42.35
2022-12-31T13:51:23.766Z,41.45
2022-12-31T13:56:31.218Z,41.65
2022-12-31T14:01:40.916Z,41.47
2022-12-31T14:06:56.419Z,41.47
2022-12-31T14:12:21.192Z,42.00
2022-12-31T14:17:39.072Z,43.08
2022-12-31T14:22:50.708Z,43.72
2022-12-31T14:27:56.764Z,43.92
2022-12-31T14:33:29.793Z,43.90
2022-12-31T14:38:43.346Z,41.83
2022-12-31T14:43:59.755Z,41.72
2022-12-31T14:49:14.568Z,41.05
2022-12-31T14:54:29.264Z,41.80
2022-12-31T14:59:40.096Z,42.25
2022-12-31T15:04:50.612Z,42.13
2022-12-31T15:10:11.302Z,41.70
2022-12-31T15:15:33.214Z,41.50
2022-12-31T15:21:02.715Z,41.35
2022-12-31T15:26:08.441Z,41.38
2022-12-31T15:31:20.086Z,42.58
2022-12-31T15:36:26.934Z,41.15
2022-12-31T15:41:42.892Z,43.40
2022-12-31T15:46:58.737Z,42.88
2022-12-31T15:52:07.157Z,41.38
2022-12-31T15:57:17.223Z,41.17
2022-12-31T16:02:24.424Z,41.15
2022-12-31T16:07:29.901Z,41.95
2022-12-31T16:12:44.376Z,41.47
2022-12-31T16:17:48.192Z,42.47
2022-12-31T16:22:56.261Z,41.80
2022-12-31T16:27:59.320Z,43.90
2022-12-31T16:33:05.022Z,41.50
2022-12-31T16:38:19.554Z,41.05
2022-12-31T16:43:27.923Z,41.45
2022-12-31T16:48:33.062Z,41.35
2022-12-31T16:53:39.521Z,42.92
2022-12-31T16:58:47.822Z,41.13
2022-12-31T17:03:56.062Z,41.67
2022-12-31T17:09:14.058Z,42.35
2022-12-31T17:14:26.217Z,42.25
2022-12-31T17:19:39.979Z,41.42
2022-12-31T17:24:45.015Z,42.00
2022-12-31T17:29:49.089Z,41.42
2022-12-31T17:34:56.092Z,41.63
2022-12-31T17:40:49.977Z,41.42
2022-12-31T17:45:27.993Z,41.70
2022-12-31T17:50:31.194Z,42.40
2022-12-31T17:55:35.877Z,41.50
2022-12-31T18:00:38.940Z,42.85
2022-12-31T18:05:44.785Z,42.42
2022-12-31T18:10:49.720Z,42.10
2022-12-31T18:15:54.509Z,42.75
2022-12-31T18:21:01.045Z,42.15
2022-12-31T18:26:05.612Z,41.85
2022-12-31T18:31:12.421Z,43.63
2022-12-31T18:36:17.078Z,41.72
2022-12-31T18:41:24.043Z,42.60
2022-12-31T18:46:28.087Z,43.97
2022-12-31T18:51:35.317Z,47.10
2022-12-31T18:56:44.957Z,42.45
2022-12-31T19:01:52.477Z,42.65
2022-12-31T19:06:56.056Z,43.20
2022-12-31T19:12:00.581Z,42.92
2022-12-31T19:22:07.903Z,41.90
2022-12-31T19:27:17.011Z,41.90
2022-12-31T19:32:19.990Z,42.13
2022-12-31T19:37:23.263Z,42.05
2022-12-31T19:42:27.684Z,42.03
2022-12-31T19:47:30.712Z,44.00
2022-12-31T19:52:34.070Z,42.78
2022-12-31T19:57:38.351Z,41.95
2022-12-31T20:02:45.166Z,43.58
2022-12-31T20:07:48.331Z,42.13
2022-12-31T20:12:52.757Z,43.08
2022-12-31T20:17:58.391Z,42.05
2022-12-31T20:23:01.482Z,41.60
2022-12-31T20:28:06.812Z,44.25
2022-12-31T20:33:18.869Z,41.33
2022-12-31T20:38:22.220Z,41.65
2022-12-31T20:43:31.485Z,41.67
2022-12-31T20:48:35.824Z,43.35
2022-12-31T20:53:39.905Z,41.67
2022-12-31T20:58:46.028Z,41.25
2022-12-31T21:04:07.060Z,41.15
2022-12-31T21:09:12.430Z,41.67
2022-12-31T21:14:21.125Z,41.90
2022-12-31T21:19:24.072Z,41.28
2022-12-31T21:24:27.172Z,41.65
2022-12-31T21:29:34.739Z,41.63
2022-12-31T21:34:38.884Z,41.85
2022-12-31T21:39:41.834Z,42.00
2022-12-31T21:44:46.234Z,42.95
2022-12-31T21:49:49.735Z,48.10
2022-12-31T21:55:10.119Z,42.58
2022-12-31T22:00:42.352Z,42.28
2022-12-31T22:05:48.700Z,41.78
2022-12-31T22:10:53.064Z,41.47
2022-12-31T22:16:04.928Z,41.60
2022-12-31T22:21:20.518Z,41.63
2022-12-31T22:26:26.039Z,42.03
2022-12-31T22:31:31.305Z,41.30
2022-12-31T22:36:34.253Z,41.15
2022-12-31T22:41:37.093Z,41.38
2022-12-31T22:46:42.509Z,41.67
2022-12-31T22:51:57.112Z,41.25
2022-12-31T22:57:02.634Z,41.28
2022-12-31T23:02:06.841Z,41.22
2022-12-31T23:07:09.728Z,41.78
2022-12-31T23:12:12.583Z,46.25
2022-12-31T23:17:37.385Z,45.22
2022-12-31T23:22:58.070Z,46.20
2022-12-31T23:28:00.966Z,51.40
2022-12-31T23:33:05.237Z,52.50
2022-12-31T23:38:08.154Z,50.13
2022-12-31T23:43:17.197Z,48.63
2022-12-31T23:48:21.453Z,44.08
2022-12-31T23:53:24.929Z,41.80
2022-12-31T23:58:27.755Z,42.20
